sensor_id;sensor_type;location;lat;lon;timestamp;P1;durP1;ratioP1;P2;durP2;ratioP2
63114;SDS011;49208;50.874;6.466;2024-03-08T07:01:02;26.27;;;13.88;;
63114;SDS011;49208;50.874;6.466;2024-03-08T07:03:29;34.00;;;16.13;;
63114;SDS011;49208;50.874;6.466;2024-03-08T07:05:55;32.08;;;15.73;;
63114;SDS011;49208;50.874;6.466;2024-03-08T07:08:23;30.70;;;14.80;;
63114;SDS011;49208;50.874;6.466;2024-03-08T07:10:48;32.15;;;15.25;;
63114;SDS011;49208;50.874;6.466;2024-03-08T07:13:14;29.63;;;14.48;;
63114;SDS011;49208;50.874;6.466;2024-03-08T07:15:40;29.25;;;14.35;;
63114;SDS011;49208;50.874;6.466;2024-03-08T07:18:05;32.60;;;14.45;;
63114;SDS011;49208;50.874;6.466;2024-03-08T07:22:58;27.40;;;12.80;;
63114;SDS011;49208;50.874;6.466;2024-03-08T07:25:23;27.38;;;14.95;;
63114;SDS011;49208;50.874;6.466;2024-03-08T07:30:16;32.22;;;14.75;;
63114;SDS011;49208;50.874;6.466;2024-03-08T07:33:02;26.73;;;14.23;;
63114;SDS011;49208;50.874;6.466;2024-03-08T07:35:28;26.08;;;13.90;;
63114;SDS011;49208;50.874;6.466;2024-03-08T07:37:54;28.42;;;12.68;;
63114;SDS011;49208;50.874;6.466;2024-03-08T07:40:20;31.92;;;14.90;;
63114;SDS011;49208;50.874;6.466;2024-03-08T07:42:47;28.40;;;14.52;;
63114;SDS011;49208;50.874;6.466;2024-03-08T07:45:12;25.05;;;13.25;;
63114;SDS011;49208;50.874;6.466;2024-03-08T07:47:38;26.35;;;14.60;;
63114;SDS011;49208;50.874;6.466;2024-03-08T07:50:05;27.47;;;14.43;;
63114;SDS011;49208;50.874;6.466;2024-03-08T07:52:33;28.48;;;14.45;;
63114;SDS011;49208;50.874;6.466;2024-03-08T07:54:58;26.08;;;14.70;;
63114;SDS011;49208;50.874;6.466;2024-03-08T07:57:24;29.02;;;14.40;;
63114;SDS011;49208;50.874;6.466;2024-03-08T07:59:51;26.85;;;13.65;;
63114;SDS011;49208;50.874;6.466;2024-03-08T08:02:17;25.63;;;14.30;;
63114;SDS011;49208;50.874;6.466;2024-03-08T08:04:42;28.95;;;14.95;;
63114;SDS011;49208;50.874;6.466;2024-03-08T08:07:09;23.40;;;14.75;;
63114;SDS011;49208;50.874;6.466;2024-03-08T08:09:35;28.20;;;14.20;;
63114;SDS011;49208;50.874;6.466;2024-03-08T08:12:00;23.30;;;13.80;;
63114;SDS011;49208;50.874;6.466;2024-03-08T08:14:29;27.65;;;13.98;;
63114;SDS011;49208;50.874;6.466;2024-03-08T08:16:54;24.85;;;14.45;;
63114;SDS011;49208;50.874;6.466;2024-03-08T08:19:22;25.55;;;13.50;;
63114;SDS011;49208;50.874;6.466;2024-03-08T08:21:47;22.38;;;12.85;;
63114;SDS011;49208;50.874;6.466;2024-03-08T08:24:13;24.60;;;13.13;;
63114;SDS011;49208;50.874;6.466;2024-03-08T08:26:38;24.85;;;13.65;;
63114;SDS011;49208;50.874;6.466;2024-03-08T08:29:03;21.65;;;13.10;;
63114;SDS011;49208;50.874;6.466;2024-03-08T08:31:31;26.85;;;14.82;;
63114;SDS011;49208;50.874;6.466;2024-03-08T08:33:58;22.90;;;13.40;;
63114;SDS011;49208;50.874;6.466;2024-03-08T08:36:26;24.23;;;14.00;;
63114;SDS011;49208;50.874;6.466;2024-03-08T08:38:54;26.38;;;14.43;;
63114;SDS011;49208;50.874;6.466;2024-03-08T08:41:21;33.65;;;13.57;;
63114;SDS011;49208;50.874;6.466;2024-03-08T08:43:47;25.42;;;13.68;;
63114;SDS011;49208;50.874;6.466;2024-03-08T08:46:18;22.90;;;13.05;;
63114;SDS011;49208;50.874;6.466;2024-03-08T08:48:44;28.20;;;14.90;;
63114;SDS011;49208;50.874;6.466;2024-03-08T08:51:12;22.52;;;13.75;;
63114;SDS011;49208;50.874;6.466;2024-03-08T08:53:41;23.58;;;14.05;;
63114;SDS011;49208;50.874;6.466;2024-03-08T08:56:12;23.20;;;13.10;;
63114;SDS011;49208;50.874;6.466;2024-03-08T08:58:41;25.52;;;12.68;;
63114;SDS011;49208;50.874;6.466;2024-03-08T09:01:10;21.95;;;12.68;;
63114;SDS011;49208;50.874;6.466;2024-03-08T09:03:36;24.83;;;13.98;;
63114;SDS011;49208;50.874;6.466;2024-03-08T09:06:05;27.52;;;14.30;;
63114;SDS011;49208;50.874;6.466;2024-03-08T09:08:36;23.80;;;12.48;;
63114;SDS011;49208;50.874;6.466;2024-03-08T09:11:03;23.90;;;13.13;;
63114;SDS011;49208;50.874;6.466;2024-03-08T09:13:29;26.23;;;13.57;;
63114;SDS011;49208;50.874;6.466;2024-03-08T09:15:54;21.75;;;11.77;;
63114;SDS011;49208;50.874;6.466;2024-03-08T09:18:20;22.95;;;13.10;;
63114;SDS011;49208;50.874;6.466;2024-03-08T09:20:46;22.88;;;12.45;;
63114;SDS011;49208;50.874;6.466;2024-03-08T09:23:12;25.08;;;13.88;;
63114;SDS011;49208;50.874;6.466;2024-03-08T09:25:37;21.65;;;12.25;;
63114;SDS011;49208;50.874;6.466;2024-03-08T09:28:03;26.60;;;13.57;;
63114;SDS011;49208;50.874;6.466;2024-03-08T09:30:28;23.27;;;13.85;;
63114;SDS011;49208;50.874;6.466;2024-03-08T09:32:54;21.77;;;12.75;;
63114;SDS011;49208;50.874;6.466;2024-03-08T09:35:19;24.23;;;13.10;;
63114;SDS011;49208;50.874;6.466;2024-03-08T09:37:44;26.92;;;13.88;;
63114;SDS011;49208;50.874;6.466;2024-03-08T09:40:12;21.25;;;12.30;;
63114;SDS011;49208;50.874;6.466;2024-03-08T09:45:08;22.17;;;12.80;;
63114;SDS011;49208;50.874;6.466;2024-03-08T09:47:41;22.05;;;12.05;;
63114;SDS011;49208;50.874;6.466;2024-03-08T09:50:07;23.20;;;12.55;;
63114;SDS011;49208;50.874;6.466;2024-03-08T09:52:37;20.83;;;11.82;;
63114;SDS011;49208;50.874;6.466;2024-03-08T09:55:04;24.65;;;12.48;;
63114;SDS011;49208;50.874;6.466;2024-03-08T09:57:31;26.58;;;11.35;;
63114;SDS011;49208;50.874;6.466;2024-03-08T10:00:01;20.55;;;11.13;;
63114;SDS011;49208;50.874;6.466;2024-03-08T10:02:26;18.85;;;10.80;;
63114;SDS011;49208;50.874;6.466;2024-03-08T10:04:52;20.15;;;11.32;;
63114;SDS011;49208;50.874;6.466;2024-03-08T10:07:18;21.48;;;11.35;;
63114;SDS011;49208;50.874;6.466;2024-03-08T10:09:43;20.65;;;11.23;;
63114;SDS011;49208;50.874;6.466;2024-03-08T10:12:15;19.73;;;11.35;;
63114;SDS011;49208;50.874;6.466;2024-03-08T10:14:44;19.45;;;10.90;;
63114;SDS011;49208;50.874;6.466;2024-03-08T10:17:11;19.17;;;10.88;;
63114;SDS011;49208;50.874;6.466;2024-03-08T10:19:37;19.17;;;10.50;;
63114;SDS011;49208;50.874;6.466;2024-03-08T10:22:02;21.13;;;11.77;;
63114;SDS011;49208;50.874;6.466;2024-03-08T10:24:29;19.95;;;10.30;;
63114;SDS011;49208;50.874;6.466;2024-03-08T10:26:58;19.75;;;10.68;;
63114;SDS011;49208;50.874;6.466;2024-03-08T10:29:25;19.23;;;11.18;;
63114;SDS011;49208;50.874;6.466;2024-03-08T10:31:51;28.10;;;10.38;;
63114;SDS011;49208;50.874;6.466;2024-03-08T10:34:16;19.42;;;11.57;;
63114;SDS011;49208;50.874;6.466;2024-03-08T10:36:42;21.98;;;10.85;;
63114;SDS011;49208;50.874;6.466;2024-03-08T10:39:14;21.70;;;10.95;;
63114;SDS011;49208;50.874;6.466;2024-03-08T10:41:58;18.85;;;10.13;;
63114;SDS011;49208;50.874;6.466;2024-03-08T10:47:02;18.90;;;10.70;;
63114;SDS011;49208;50.874;6.466;2024-03-08T10:49:32;20.80;;;11.68;;
63114;SDS011;49208;50.874;6.466;2024-03-08T10:52:04;22.77;;;10.00;;
63114;SDS011;49208;50.874;6.466;2024-03-08T10:54:33;19.05;;;10.35;;
63114;SDS011;49208;50.874;6.466;2024-03-08T10:56:59;19.10;;;11.13;;
63114;SDS011;49208;50.874;6.466;2024-03-08T10:59:29;18.48;;;10.57;;
63114;SDS011;49208;50.874;6.466;2024-03-08T11:01:55;17.92;;;10.52;;
63114;SDS011;49208;50.874;6.466;2024-03-08T11:04:20;18.20;;;10.27;;
63114;SDS011;49208;50.874;6.466;2024-03-08T11:06:48;19.10;;;10.27;;
63114;SDS011;49208;50.874;6.466;2024-03-08T11:09:27;19.13;;;9.60;;
63114;SDS011;49208;50.874;6.466;2024-03-08T11:12:40;16.15;;;10.00;;
63114;SDS011;49208;50.874;6.466;2024-03-08T11:15:01;17.33;;;9.63;;
63114;SDS011;49208;50.874;6.466;2024-03-08T11:19:59;16.00;;;8.63;;
63114;SDS011;49208;50.874;6.466;2024-03-08T11:22:32;18.52;;;9.55;;
63114;SDS011;49208;50.874;6.466;2024-03-08T11:25:01;19.73;;;10.52;;
63114;SDS011;49208;50.874;6.466;2024-03-08T11:27:29;16.75;;;10.15;;
63114;SDS011;49208;50.874;6.466;2024-03-08T11:29:59;19.08;;;9.18;;
63114;SDS011;49208;50.874;6.466;2024-03-08T11:32:34;18.17;;;9.65;;
63114;SDS011;49208;50.874;6.466;2024-03-08T11:35:00;18.25;;;9.63;;
63114;SDS011;49208;50.874;6.466;2024-03-08T11:37:30;18.48;;;10.57;;
63114;SDS011;49208;50.874;6.466;2024-03-08T11:39:59;19.23;;;9.75;;
63114;SDS011;49208;50.874;6.466;2024-03-08T11:42:26;17.20;;;11.00;;
63114;SDS011;49208;50.874;6.466;2024-03-08T11:44:52;17.77;;;9.52;;
63114;SDS011;49208;50.874;6.466;2024-03-08T11:47:18;19.05;;;10.48;;
63114;SDS011;49208;50.874;6.466;2024-03-08T11:49:44;15.95;;;9.27;;
63114;SDS011;49208;50.874;6.466;2024-03-08T11:52:11;15.38;;;10.10;;
63114;SDS011;49208;50.874;6.466;2024-03-08T11:54:40;18.40;;;10.48;;
63114;SDS011;49208;50.874;6.466;2024-03-08T11:57:06;18.48;;;10.45;;
63114;SDS011;49208;50.874;6.466;2024-03-08T11:59:32;16.10;;;8.98;;
63114;SDS011;49208;50.874;6.466;2024-03-08T12:02:01;15.32;;;9.43;;
63114;SDS011;49208;50.874;6.466;2024-03-08T12:04:28;17.40;;;9.93;;
63114;SDS011;49208;50.874;6.466;2024-03-08T12:06:54;17.23;;;8.85;;
63114;SDS011;49208;50.874;6.466;2024-03-08T12:09:19;15.95;;;8.93;;
63114;SDS011;49208;50.874;6.466;2024-03-08T12:11:48;15.32;;;10.27;;
63114;SDS011;49208;50.874;6.466;2024-03-08T12:14:14;15.73;;;9.13;;
63114;SDS011;49208;50.874;6.466;2024-03-08T12:16:40;15.00;;;9.32;;
63114;SDS011;49208;50.874;6.466;2024-03-08T12:19:07;14.43;;;9.32;;
63114;SDS011;49208;50.874;6.466;2024-03-08T12:21:34;15.52;;;9.13;;
63114;SDS011;49208;50.874;6.466;2024-03-08T12:24:04;17.83;;;9.55;;
63114;SDS011;49208;50.874;6.466;2024-03-08T12:26:34;16.05;;;9.32;;
63114;SDS011;49208;50.874;6.466;2024-03-08T12:29:20;17.92;;;9.75;;
63114;SDS011;49208;50.874;6.466;2024-03-08T12:31:52;17.17;;;9.18;;
63114;SDS011;49208;50.874;6.466;2024-03-08T12:34:19;19.65;;;9.20;;
63114;SDS011;49208;50.874;6.466;2024-03-08T12:36:45;13.63;;;8.88;;
63114;SDS011;49208;50.874;6.466;2024-03-08T12:39:17;14.48;;;8.20;;
63114;SDS011;49208;50.874;6.466;2024-03-08T12:41:47;18.02;;;9.20;;
63114;SDS011;49208;50.874;6.466;2024-03-08T12:44:16;16.45;;;8.38;;
63114;SDS011;49208;50.874;6.466;2024-03-08T12:46:44;15.48;;;8.68;;
63114;SDS011;49208;50.874;6.466;2024-03-08T12:49:10;13.70;;;8.45;;
63114;SDS011;49208;50.874;6.466;2024-03-08T12:51:37;16.08;;;8.60;;
63114;SDS011;49208;50.874;6.466;2024-03-08T12:54:03;22.23;;;9.98;;
63114;SDS011;49208;50.874;6.466;2024-03-08T12:56:32;14.57;;;8.38;;
63114;SDS011;49208;50.874;6.466;2024-03-08T12:58:59;16.17;;;9.68;;
63114;SDS011;49208;50.874;6.466;2024-03-08T13:01:25;13.73;;;8.63;;
63114;SDS011;49208;50.874;6.466;2024-03-08T13:03:50;15.48;;;8.32;;
63114;SDS011;49208;50.874;6.466;2024-03-08T13:06:16;17.35;;;9.35;;
63114;SDS011;49208;50.874;6.466;2024-03-08T13:08:41;16.92;;;9.45;;
63114;SDS011;49208;50.874;6.466;2024-03-08T13:13:36;15.18;;;9.18;;
63114;SDS011;49208;50.874;6.466;2024-03-08T13:16:03;15.25;;;8.52;;
63114;SDS011;49208;50.874;6.466;2024-03-08T13:18:33;16.30;;;9.40;;
63114;SDS011;49208;50.874;6.466;2024-03-08T13:20:58;14.38;;;8.35;;
63114;SDS011;49208;50.874;6.466;2024-03-08T13:23:24;17.38;;;8.90;;
63114;SDS011;49208;50.874;6.466;2024-03-08T13:25:49;16.30;;;9.48;;
63114;SDS011;49208;50.874;6.466;2024-03-08T13:28:15;19.33;;;9.02;;
63114;SDS011;49208;50.874;6.466;2024-03-08T13:30:41;15.05;;;8.38;;
63114;SDS011;49208;50.874;6.466;2024-03-08T13:33:06;15.90;;;9.18;;
63114;SDS011;49208;50.874;6.466;2024-03-08T13:35:32;14.32;;;8.15;;
63114;SDS011;49208;50.874;6.466;2024-03-08T13:37:57;15.02;;;8.98;;
63114;SDS011;49208;50.874;6.466;2024-03-08T13:40:23;15.50;;;8.68;;
63114;SDS011;49208;50.874;6.466;2024-03-08T13:42:48;16.55;;;9.13;;
63114;SDS011;49208;50.874;6.466;2024-03-08T13:45:15;13.82;;;8.73;;
63114;SDS011;49208;50.874;6.466;2024-03-08T13:47:47;13.75;;;8.10;;
63114;SDS011;49208;50.874;6.466;2024-03-08T13:50:14;15.50;;;8.23;;
63114;SDS011;49208;50.874;6.466;2024-03-08T13:52:46;15.27;;;7.95;;
63114;SDS011;49208;50.874;6.466;2024-03-08T13:55:18;14.68;;;8.05;;
63114;SDS011;49208;50.874;6.466;2024-03-08T13:57:44;15.50;;;8.68;;
63114;SDS011;49208;50.874;6.466;2024-03-08T14:00:10;15.10;;;7.80;;
63114;SDS011;49208;50.874;6.466;2024-03-08T14:02:37;12.52;;;7.95;;
63114;SDS011;49208;50.874;6.466;2024-03-08T14:05:04;14.50;;;8.25;;
63114;SDS011;49208;50.874;6.466;2024-03-08T14:07:29;15.77;;;7.95;;
63114;SDS011;49208;50.874;6.466;2024-03-08T14:09:55;13.70;;;8.50;;
63114;SDS011;49208;50.874;6.466;2024-03-08T14:12:20;17.00;;;8.35;;
63114;SDS011;49208;50.874;6.466;2024-03-08T14:14:46;13.55;;;8.45;;
63114;SDS011;49208;50.874;6.466;2024-03-08T14:17:11;16.15;;;8.73;;
63114;SDS011;49208;50.874;6.466;2024-03-08T14:19:42;14.40;;;8.15;;
63114;SDS011;49208;50.874;6.466;2024-03-08T14:22:07;16.17;;;7.60;;
63114;SDS011;49208;50.874;6.466;2024-03-08T14:24:35;17.10;;;8.40;;
63114;SDS011;49208;50.874;6.466;2024-03-08T14:27:01;13.60;;;7.60;;
63114;SDS011;49208;50.874;6.466;2024-03-08T14:29:28;14.05;;;8.13;;
63114;SDS011;49208;50.874;6.466;2024-03-08T14:34:23;13.52;;;7.20;;
63114;SDS011;49208;50.874;6.466;2024-03-08T14:36:52;17.40;;;8.95;;
63114;SDS011;49208;50.874;6.466;2024-03-08T14:39:17;17.30;;;9.90;;
63114;SDS011;49208;50.874;6.466;2024-03-08T14:41:46;14.73;;;8.13;;
63114;SDS011;49208;50.874;6.466;2024-03-08T14:44:18;13.40;;;7.93;;
63114;SDS011;49208;50.874;6.466;2024-03-08T14:46:50;12.50;;;7.78;;
63114;SDS011;49208;50.874;6.466;2024-03-08T14:49:18;15.40;;;7.97;;
63114;SDS011;49208;50.874;6.466;2024-03-08T14:51:44;15.85;;;8.68;;
63114;SDS011;49208;50.874;6.466;2024-03-08T14:54:10;20.88;;;8.98;;
63114;SDS011;49208;50.874;6.466;2024-03-08T14:56:36;12.80;;;8.30;;
63114;SDS011;49208;50.874;6.466;2024-03-08T14:59:02;15.25;;;8.68;;
63114;SDS011;49208;50.874;6.466;2024-03-08T15:01:29;15.52;;;7.60;;
63114;SDS011;49208;50.874;6.466;2024-03-08T15:03:58;13.95;;;7.45;;
63114;SDS011;49208;50.874;6.466;2024-03-08T15:06:28;14.93;;;8.55;;
63114;SDS011;49208;50.874;6.466;2024-03-08T15:08:56;18.45;;;10.27;;
63114;SDS011;49208;50.874;6.466;2024-03-08T15:11:22;15.50;;;8.80;;
63114;SDS011;49208;50.874;6.466;2024-03-08T15:13:50;13.95;;;7.93;;
63114;SDS011;49208;50.874;6.466;2024-03-08T15:16:18;15.68;;;7.93;;
63114;SDS011;49208;50.874;6.466;2024-03-08T15:18:44;16.25;;;9.02;;
63114;SDS011;49208;50.874;6.466;2024-03-08T15:21:13;14.82;;;8.48;;
63114;SDS011;49208;50.874;6.466;2024-03-08T15:23:46;15.40;;;8.10;;
63114;SDS011;49208;50.874;6.466;2024-03-08T15:26:15;19.83;;;8.43;;
63114;SDS011;49208;50.874;6.466;2024-03-08T15:28:41;13.77;;;9.00;;
63114;SDS011;49208;50.874;6.466;2024-03-08T15:31:09;15.25;;;9.25;;
63114;SDS011;49208;50.874;6.466;2024-03-08T15:33:36;17.58;;;8.20;;
63114;SDS011;49208;50.874;6.466;2024-03-08T15:36:16;14.68;;;9.15;;
63114;SDS011;49208;50.874;6.466;2024-03-08T15:38:42;14.70;;;8.02;;
63114;SDS011;49208;50.874;6.466;2024-03-08T15:41:12;14.68;;;8.88;;
63114;SDS011;49208;50.874;6.466;2024-03-08T15:43:42;15.52;;;9.40;;
63114;SDS011;49208;50.874;6.466;2024-03-08T15:46:08;14.23;;;8.32;;
63114;SDS011;49208;50.874;6.466;2024-03-08T15:48:35;15.55;;;9.10;;
63114;SDS011;49208;50.874;6.466;2024-03-08T15:51:02;14.40;;;8.18;;
63114;SDS011;49208;50.874;6.466;2024-03-08T15:53:30;16.42;;;8.20;;
63114;SDS011;49208;50.874;6.466;2024-03-08T15:55:56;16.50;;;8.68;;
63114;SDS011;49208;50.874;6.466;2024-03-08T15:58:24;14.13;;;7.82;;
63114;SDS011;49208;50.874;6.466;2024-03-08T16:00:50;12.85;;;7.95;;
63114;SDS011;49208;50.874;6.466;2024-03-08T16:03:17;15.95;;;8.30;;
63114;SDS011;49208;50.874;6.466;2024-03-08T16:05:45;15.43;;;9.02;;
63114;SDS011;49208;50.874;6.466;2024-03-08T16:08:11;15.27;;;9.05;;
63114;SDS011;49208;50.874;6.466;2024-03-08T16:10:44;15.32;;;8.50;;
63114;SDS011;49208;50.874;6.466;2024-03-08T16:13:13;17.95;;;8.50;;
63114;SDS011;49208;50.874;6.466;2024-03-08T16:15:41;15.40;;;9.15;;
63114;SDS011;49208;50.874;6.466;2024-03-08T16:18:09;16.63;;;7.78;;
63114;SDS011;49208;50.874;6.466;2024-03-08T16:20:34;14.43;;;8.30;;
63114;SDS011;49208;50.874;6.466;2024-03-08T16:23:00;15.52;;;8.55;;
63114;SDS011;49208;50.874;6.466;2024-03-08T16:25:25;14.57;;;7.97;;
63114;SDS011;49208;50.874;6.466;2024-03-08T16:27:51;13.07;;;7.63;;
63114;SDS011;49208;50.874;6.466;2024-03-08T16:30:16;15.38;;;8.38;;
63114;SDS011;49208;50.874;6.466;2024-03-08T16:32:44;15.45;;;8.93;;
63114;SDS011;49208;50.874;6.466;2024-03-08T16:35:12;16.77;;;9.35;;
63114;SDS011;49208;50.874;6.466;2024-03-08T16:37:41;16.38;;;9.70;;
63114;SDS011;49208;50.874;6.466;2024-03-08T16:40:07;16.25;;;8.25;;
63114;SDS011;49208;50.874;6.466;2024-03-08T16:42:40;14.00;;;8.25;;
63114;SDS011;49208;50.874;6.466;2024-03-08T16:45:07;14.75;;;7.95;;
63114;SDS011;49208;50.874;6.466;2024-03-08T16:47:35;17.02;;;8.85;;
63114;SDS011;49208;50.874;6.466;2024-03-08T16:50:01;14.10;;;8.70;;
63114;SDS011;49208;50.874;6.466;2024-03-08T16:52:30;16.55;;;8.52;;
63114;SDS011;49208;50.874;6.466;2024-03-08T16:54:56;14.90;;;8.37;;
63114;SDS011;49208;50.874;6.466;2024-03-08T16:57:22;14.40;;;8.13;;
63114;SDS011;49208;50.874;6.466;2024-03-08T16:59:50;16.33;;;8.25;;
63114;SDS011;49208;50.874;6.466;2024-03-08T17:02:16;19.70;;;8.98;;
63114;SDS011;49208;50.874;6.466;2024-03-08T17:04:42;14.63;;;7.90;;
63114;SDS011;49208;50.874;6.466;2024-03-08T17:07:09;12.77;;;7.53;;
63114;SDS011;49208;50.874;6.466;2024-03-08T17:09:36;14.90;;;8.43;;
63114;SDS011;49208;50.874;6.466;2024-03-08T17:12:02;16.58;;;9.15;;
63114;SDS011;49208;50.874;6.466;2024-03-08T17:14:29;16.80;;;8.55;;
63114;SDS011;49208;50.874;6.466;2024-03-08T17:16:56;17.17;;;9.30;;
63114;SDS011;49208;50.874;6.466;2024-03-08T17:19:24;14.45;;;8.35;;
63114;SDS011;49208;50.874;6.466;2024-03-08T17:21:51;17.80;;;8.85;;
63114;SDS011;49208;50.874;6.466;2024-03-08T17:24:20;14.80;;;8.50;;
63114;SDS011;49208;50.874;6.466;2024-03-08T17:26:48;17.30;;;8.95;;
63114;SDS011;49208;50.874;6.466;2024-03-08T17:29:17;15.85;;;7.82;;
63114;SDS011;49208;50.874;6.466;2024-03-08T17:31:46;17.88;;;9.52;;
63114;SDS011;49208;50.874;6.466;2024-03-08T17:34:15;15.13;;;8.43;;
63114;SDS011;49208;50.874;6.466;2024-03-08T17:36:44;13.88;;;8.25;;
63114;SDS011;49208;50.874;6.466;2024-03-08T17:39:14;18.85;;;8.93;;
63114;SDS011;49208;50.874;6.466;2024-03-08T17:41:46;17.45;;;8.50;;
63114;SDS011;49208;50.874;6.466;2024-03-08T17:44:17;17.98;;;8.88;;
63114;SDS011;49208;50.874;6.466;2024-03-08T17:46:46;20.15;;;9.15;;
63114;SDS011;49208;50.874;6.466;2024-03-08T17:49:14;18.63;;;9.65;;
63114;SDS011;49208;50.874;6.466;2024-03-08T17:51:40;17.65;;;9.50;;
63114;SDS011;49208;50.874;6.466;2024-03-08T17:54:06;18.42;;;8.60;;
63114;SDS011;49208;50.874;6.466;2024-03-08T17:56:35;19.35;;;8.95;;
63114;SDS011;49208;50.874;6.466;2024-03-08T17:59:01;15.63;;;9.25;;
63114;SDS011;49208;50.874;6.466;2024-03-08T18:01:28;18.02;;;8.82;;
63114;SDS011;49208;50.874;6.466;2024-03-08T18:03:53;19.20;;;9.88;;
63114;SDS011;49208;50.874;6.466;2024-03-08T18:06:20;19.35;;;8.55;;
63114;SDS011;49208;50.874;6.466;2024-03-08T18:08:49;15.88;;;8.38;;
63114;SDS011;49208;50.874;6.466;2024-03-08T18:11:14;16.63;;;9.07;;
63114;SDS011;49208;50.874;6.466;2024-03-08T18:13:40;17.95;;;9.45;;
63114;SDS011;49208;50.874;6.466;2024-03-08T18:16:05;15.88;;;9.07;;
63114;SDS011;49208;50.874;6.466;2024-03-08T18:18:32;19.95;;;9.23;;
63114;SDS011;49208;50.874;6.466;2024-03-08T18:20:58;19.00;;;10.40;;
63114;SDS011;49208;50.874;6.466;2024-03-08T18:23:23;17.08;;;9.23;;
63114;SDS011;49208;50.874;6.466;2024-03-08T18:25:51;20.63;;;9.57;;
63114;SDS011;49208;50.874;6.466;2024-03-08T18:28:17;21.35;;;9.77;;
63114;SDS011;49208;50.874;6.466;2024-03-08T18:30:42;15.80;;;9.02;;
63114;SDS011;49208;50.874;6.466;2024-03-08T18:33:13;18.10;;;9.98;;
63114;SDS011;49208;50.874;6.466;2024-03-08T18:35:39;18.42;;;9.85;;
63114;SDS011;49208;50.874;6.466;2024-03-08T18:38:06;17.50;;;8.88;;
63114;SDS011;49208;50.874;6.466;2024-03-08T18:40:32;18.60;;;9.90;;
63114;SDS011;49208;50.874;6.466;2024-03-08T18:42:59;16.42;;;9.18;;
63114;SDS011;49208;50.874;6.466;2024-03-08T18:45:27;17.17;;;9.77;;
63114;SDS011;49208;50.874;6.466;2024-03-08T18:47:53;17.60;;;9.77;;
63114;SDS011;49208;50.874;6.466;2024-03-08T18:50:21;19.60;;;10.05;;
63114;SDS011;49208;50.874;6.466;2024-03-08T18:52:53;17.00;;;9.75;;
63114;SDS011;49208;50.874;6.466;2024-03-08T18:55:21;20.35;;;10.57;;
63114;SDS011;49208;50.874;6.466;2024-03-08T18:57:49;19.83;;;10.57;;
63114;SDS011;49208;50.874;6.466;2024-03-08T19:00:21;18.42;;;9.68;;
63114;SDS011;49208;50.874;6.466;2024-03-08T19:02:50;18.23;;;10.27;;
63114;SDS011;49208;50.874;6.466;2024-03-08T19:05:20;17.17;;;10.25;;
63114;SDS011;49208;50.874;6.466;2024-03-08T19:07:47;20.67;;;10.02;;
63114;SDS011;49208;50.874;6.466;2024-03-08T19:10:15;22.58;;;11.07;;
63114;SDS011;49208;50.874;6.466;2024-03-08T19:12:45;19.98;;;10.75;;
63114;SDS011;49208;50.874;6.466;2024-03-08T19:17:41;22.02;;;10.43;;
63114;SDS011;49208;50.874;6.466;2024-03-08T19:20:06;19.48;;;10.45;;
63114;SDS011;49208;50.874;6.466;2024-03-08T19:22:41;22.65;;;11.00;;
63114;SDS011;49208;50.874;6.466;2024-03-08T19:25:09;19.30;;;10.45;;
63114;SDS011;49208;50.874;6.466;2024-03-08T19:27:36;20.58;;;10.45;;
63114;SDS011;49208;50.874;6.466;2024-03-08T19:30:06;26.27;;;12.20;;
63114;SDS011;49208;50.874;6.466;2024-03-08T19:32:34;19.67;;;10.27;;
63114;SDS011;49208;50.874;6.466;2024-03-08T19:35:00;22.00;;;11.07;;
63114;SDS011;49208;50.874;6.466;2024-03-08T19:37:35;26.00;;;12.43;;
63114;SDS011;49208;50.874;6.466;2024-03-08T19:40:06;23.88;;;11.07;;
63114;SDS011;49208;50.874;6.466;2024-03-08T19:42:45;27.98;;;12.27;;
63114;SDS011;49208;50.874;6.466;2024-03-08T19:45:24;27.42;;;11.85;;
63114;SDS011;49208;50.874;6.466;2024-03-08T19:47:51;20.13;;;10.35;;
63114;SDS011;49208;50.874;6.466;2024-03-08T19:50:17;24.30;;;11.10;;
63114;SDS011;49208;50.874;6.466;2024-03-08T19:52:46;21.30;;;10.80;;
63114;SDS011;49208;50.874;6.466;2024-03-08T19:55:13;24.63;;;11.18;;
63114;SDS011;49208;50.874;6.466;2024-03-08T20:00:08;24.75;;;11.65;;
63114;SDS011;49208;50.874;6.466;2024-03-08T20:02:40;34.90;;;12.32;;
63114;SDS011;49208;50.874;6.466;2024-03-08T20:05:09;26.65;;;11.85;;
63114;SDS011;49208;50.874;6.466;2024-03-08T20:07:37;33.67;;;11.00;;
63114;SDS011;49208;50.874;6.466;2024-03-08T20:10:04;28.77;;;11.07;;
63114;SDS011;49208;50.874;6.466;2024-03-08T20:12:35;20.25;;;11.20;;
63114;SDS011;49208;50.874;6.466;2024-03-08T20:15:03;21.70;;;9.98;;
63114;SDS011;49208;50.874;6.466;2024-03-08T20:17:32;23.05;;;10.57;;
63114;SDS011;49208;50.874;6.466;2024-03-08T20:20:05;21.42;;;10.68;;
63114;SDS011;49208;50.874;6.466;2024-03-08T20:24:57;20.55;;;11.15;;
63114;SDS011;49208;50.874;6.466;2024-03-08T20:27:26;21.92;;;11.45;;
63114;SDS011;49208;50.874;6.466;2024-03-08T20:29:54;19.73;;;10.60;;
63114;SDS011;49208;50.874;6.466;2024-03-08T20:32:20;23.85;;;11.00;;
63114;SDS011;49208;50.874;6.466;2024-03-08T20:34:46;20.63;;;11.35;;
63114;SDS011;49208;50.874;6.466;2024-03-08T20:37:12;23.08;;;10.93;;
63114;SDS011;49208;50.874;6.466;2024-03-08T20:39:39;22.02;;;11.25;;
63114;SDS011;49208;50.874;6.466;2024-03-08T20:42:05;21.70;;;10.45;;
63114;SDS011;49208;50.874;6.466;2024-03-08T20:44:31;20.02;;;10.43;;
63114;SDS011;49208;50.874;6.466;2024-03-08T20:46:57;24.77;;;11.55;;
63114;SDS011;49208;50.874;6.466;2024-03-08T20:49:23;22.83;;;11.07;;
63114;SDS011;49208;50.874;6.466;2024-03-08T20:51:49;22.88;;;11.70;;
63114;SDS011;49208;50.874;6.466;2024-03-08T20:54:14;22.15;;;10.63;;
63114;SDS011;49208;50.874;6.466;2024-03-08T20:56:41;20.20;;;10.98;;
63114;SDS011;49208;50.874;6.466;2024-03-08T20:59:07;23.63;;;11.10;;
63114;SDS011;49208;50.874;6.466;2024-03-08T21:01:35;18.13;;;10.27;;
63114;SDS011;49208;50.874;6.466;2024-03-08T21:04:01;22.00;;;11.27;;
63114;SDS011;49208;50.874;6.466;2024-03-08T21:06:28;20.58;;;11.40;;
63114;SDS011;49208;50.874;6.466;2024-03-08T21:08:53;22.50;;;11.68;;
63114;SDS011;49208;50.874;6.466;2024-03-08T21:11:21;23.75;;;11.25;;
63114;SDS011;49208;50.874;6.466;2024-03-08T21:16:14;20.45;;;10.40;;
63114;SDS011;49208;50.874;6.466;2024-03-08T21:18:39;23.20;;;10.93;;
63114;SDS011;49208;50.874;6.466;2024-03-08T21:21:05;26.90;;;11.35;;
63114;SDS011;49208;50.874;6.466;2024-03-08T21:23:31;21.27;;;11.27;;
63114;SDS011;49208;50.874;6.466;2024-03-08T21:25:57;21.40;;;10.73;;
63114;SDS011;49208;50.874;6.466;2024-03-08T21:28:23;21.00;;;11.27;;
63114;SDS011;49208;50.874;6.466;2024-03-08T21:30:54;21.98;;;11.45;;
63114;SDS011;49208;50.874;6.466;2024-03-08T21:33:21;21.95;;;10.50;;
63114;SDS011;49208;50.874;6.466;2024-03-08T21:35:46;21.10;;;11.45;;
63114;SDS011;49208;50.874;6.466;2024-03-08T21:38:11;24.73;;;11.90;;
63114;SDS011;49208;50.874;6.466;2024-03-08T21:40:37;20.00;;;10.35;;
63114;SDS011;49208;50.874;6.466;2024-03-08T21:43:04;18.10;;;10.52;;
63114;SDS011;49208;50.874;6.466;2024-03-08T21:45:31;17.23;;;10.40;;
63114;SDS011;49208;50.874;6.466;2024-03-08T21:47:57;24.05;;;11.70;;
63114;SDS011;49208;50.874;6.466;2024-03-08T21:50:26;22.50;;;11.23;;
63114;SDS011;49208;50.874;6.466;2024-03-08T21:52:55;25.20;;;11.82;;
63114;SDS011;49208;50.874;6.466;2024-03-08T21:55:22;21.63;;;12.43;;
63114;SDS011;49208;50.874;6.466;2024-03-08T21:57:50;21.75;;;11.82;;